Time;durP1;ratioP1;P1;durP2;ratioP2;P2;SDS_P1;SDS_P2;PMS_P1;PMS_P2;Temp;Humidity;BMP_temperature;BMP_pressure;BME280_temperature;BME280_humidity;BME280_pressure;Samples;Min_cycle;Max_cycle;Signal;HPM_P1;HPM_P2
2022/03/20 00:02:00;;;;;;;36.07;22.63;;;0.90;99.90;;;;;;5117893;28;20305;-85
2022/03/20 00:04:26;;;;;;;36.13;22.87;;;2.40;99.90;;;;;;5117877;28;20232;-85
2022/03/20 00:06:51;;;;;;;36.17;21.20;;;0.80;99.90;;;;;;5118557;28;20380;-85
2022/03/20 00:09:17;;;;;;;36.10;21.57;;;1.20;99.90;;;;;;5120144;28;20168;-85
2022/03/20 00:11:42;;;;;;;35.83;22.60;;;0.70;99.90;;;;;;5119384;28;20263;-85
2022/03/20 00:14:08;;;;;;;34.10;22.00;;;0.70;99.90;;;;;;5118963;28;20219;-85
2022/03/20 00:16:34;;;;;;;35.03;22.40;;;0.70;99.90;;;;;;5120212;28;20226;-85
2022/03/20 00:18:59;;;;;;;36.67;22.10;;;0.70;99.90;;;;;;5120021;28;20228;-84
2022/03/20 00:21:25;;;;;;;41.07;23.60;;;0.60;99.90;;;;;;5119250;28;20290;-84
2022/03/20 00:23:51;;;;;;;36.30;21.13;;;0.70;99.90;;;;;;5121680;28;20199;-85
2022/03/20 00:26:21;;;;;;;37.37;22.23;;;0.70;99.90;;;;;;5121243;28;20571;-84
2022/03/20 00:28:46;;;;;;;39.13;21.93;;;0.60;99.90;;;;;;5121667;28;20178;-84
2022/03/20 00:31:13;;;;;;;35.97;21.80;;;0.60;99.90;;;;;;5119948;28;20207;-84
2022/03/20 00:33:38;;;;;;;33.67;21.00;;;0.50;99.90;;;;;;5119089;28;20266;-85
2022/03/20 00:36:04;;;;;;;34.83;20.60;;;2.20;99.90;;;;;;5122401;28;20484;-83
2022/03/20 00:38:30;;;;;;;36.43;21.33;;;0.40;99.90;;;;;;5138328;28;20167;-84
2022/03/20 00:40:56;;;;;;;29.83;18.47;;;0.50;99.90;;;;;;5125436;28;20179;-84
2022/03/20 00:43:21;;;;;;;35.03;19.77;;;0.40;99.90;;;;;;5123337;28;20279;-84
2022/03/20 00:45:47;;;;;;;34.20;21.80;;;0.20;99.90;;;;;;5123060;28;20191;-84
2022/03/20 00:48:13;;;;;;;39.33;22.47;;;0.20;99.90;;;;;;5123521;28;20201;-85
2022/03/20 00:50:46;;;;;;;35.13;21.57;;;1.60;99.90;;;;;;5123354;28;20175;-84
2022/03/20 00:53:12;;;;;;;37.20;21.17;;;0.30;99.90;;;;;;5122182;28;20194;-84
2022/03/20 00:55:39;;;;;;;41.33;22.67;;;0.40;99.90;;;;;;5122026;28;20683;-84
2022/03/20 00:58:04;;;;;;;35.63;22.13;;;1.60;99.90;;;;;;5122329;28;20172;-84
2022/03/20 01:00:32;;;;;;;32.47;21.67;;;0.40;99.90;;;;;;5123027;28;20490;-84
2022/03/20 01:02:59;;;;;;;38.47;21.77;;;1.90;99.90;;;;;;5121772;28;20283;-84
2022/03/20 01:05:25;;;;;;;36.13;20.73;;;;;;;;;;5121268;28;20478;-84
2022/03/20 01:07:51;;;;;;;36.03;22.03;;;;;;;;;;5122142;28;20459;-84
2022/03/20 01:10:17;;;;;;;34.93;20.73;;;0.20;99.90;;;;;;5120964;28;20419;-84
2022/03/20 01:12:42;;;;;;;43.80;22.53;;;2.50;99.90;;;;;;5121642;28;20587;-84
2022/03/20 01:15:12;;;;;;;40.63;22.87;;;0.20;99.90;;;;;;5121986;28;20171;-84
2022/03/20 01:17:38;;;;;;;38.77;22.07;;;0.50;99.90;;;;;;5121562;28;20172;-84
2022/03/20 01:20:05;;;;;;;32.43;20.23;;;0.80;99.90;;;;;;5122769;28;20168;-84
2022/03/20 01:22:31;;;;;;;39.50;22.83;;;0.10;99.90;;;;;;5123031;28;20427;-84
2022/03/20 01:24:57;;;;;;;38.40;21.43;;;;;;;;;;5122640;28;20441;-84
2022/03/20 01:27:23;;;;;;;43.43;26.23;;;;;;;;;;5121456;28;20175;-84
2022/03/20 01:29:49;;;;;;;45.23;26.60;;;-0.10;99.90;;;;;;5123459;28;20493;-84
2022/03/20 01:32:14;;;;;;;43.27;25.83;;;0.90;99.90;;;;;;5122932;28;20679;-84
2022/03/20 01:34:40;;;;;;;38.27;22.20;;;;;;;;;;5121406;28;20537;-85
2022/03/20 01:37:06;;;;;;;39.90;22.87;;;0.00;99.90;;;;;;5122144;28;20209;-84
2022/03/20 01:39:32;;;;;;;39.03;23.57;;;0.10;99.90;;;;;;5127088;28;20173;-84
2022/03/20 01:41:58;;;;;;;47.33;25.50;;;0.10;99.90;;;;;;5122210;28;20178;-84
2022/03/20 01:44:34;;;;;;;42.77;24.70;;;0.60;99.90;;;;;;5120653;28;20202;-85
2022/03/20 01:47:00;;;;;;;42.13;23.20;;;0.40;99.90;;;;;;5120331;28;20194;-84
2022/03/20 01:49:26;;;;;;;42.83;24.63;;;2.20;99.90;;;;;;5120056;28;20176;-84
2022/03/20 01:52:11;;;;;;;38.50;23.03;;;0.90;99.90;;;;;;5122171;28;20176;-84
2022/03/20 01:54:37;;;;;;;43.37;24.50;;;0.00;99.90;;;;;;5120891;28;20185;-84
2022/03/20 01:57:04;;;;;;;39.23;23.33;;;0.50;99.90;;;;;;5120717;28;20191;-84
2022/03/20 01:59:30;;;;;;;42.57;24.70;;;0.00;99.90;;;;;;5122279;28;20209;-84
2022/03/20 02:01:56;;;;;;;35.63;22.73;;;;;;;;;;5121387;28;20414;-84
2022/03/20 02:04:22;;;;;;;40.73;23.27;;;0.00;99.90;;;;;;5121418;28;20443;-84
2022/03/20 02:06:48;;;;;;;42.50;24.33;;;0.10;99.90;;;;;;5121344;28;20191;-84
2022/03/20 02:09:14;;;;;;;41.60;22.80;;;;;;;;;;5119980;28;20633;-84
2022/03/20 02:11:44;;;;;;;41.37;23.83;;;-0.10;99.90;;;;;;5120647;28;20175;-84
2022/03/20 02:14:10;;;;;;;38.17;22.33;;;;;;;;;;5121144;28;20189;-84
2022/03/20 02:16:38;;;;;;;44.87;23.57;;;-0.30;99.90;;;;;;5121323;28;20520;-84
2022/03/20 02:19:13;;;;;;;34.63;21.37;;;-0.50;99.90;;;;;;5122182;28;20413;-84
2022/03/20 02:21:47;;;;;;;39.50;21.67;;;-0.50;99.90;;;;;;5119851;28;20175;-84
2022/03/20 02:24:41;;;;;;;36.03;20.63;;;-0.60;99.90;;;;;;5119911;28;20452;-85
2022/03/20 02:27:23;;;;;;;40.67;22.30;;;-0.60;99.90;;;;;;5121620;28;20433;-84
2022/03/20 02:29:53;;;;;;;46.70;25.43;;;-0.60;99.90;;;;;;5120426;28;20417;-86
2022/03/20 02:32:28;;;;;;;41.60;24.50;;;-0.60;99.90;;;;;;5120354;28;20831;-84
2022/03/20 02:34:56;;;;;;;47.53;26.10;;;-0.60;99.90;;;;;;5120040;28;20409;-84
2022/03/20 02:37:24;;;;;;;42.00;25.13;;;-0.50;99.90;;;;;;5120334;28;20463;-85
2022/03/20 02:39:50;;;;;;;43.77;23.93;;;-0.50;99.90;;;;;;5120270;28;20511;-84
2022/03/20 02:42:17;;;;;;;43.83;23.03;;;;;;;;;;5120172;28;20425;-84
2022/03/20 02:45:03;;;;;;;44.53;23.00;;;-0.60;99.90;;;;;;5121408;28;20541;-84
2022/03/20 02:47:34;;;;;;;39.87;24.33;;;-0.70;99.90;;;;;;5120282;28;20471;-84
2022/03/20 02:50:05;;;;;;;39.77;23.80;;;0.50;99.90;;;;;;5120244;28;20417;-85
2022/03/20 02:52:52;;;;;;;39.13;23.93;;;-0.70;99.90;;;;;;5119850;28;20416;-85
2022/03/20 02:55:20;;;;;;;44.00;23.67;;;-0.60;99.90;;;;;;5120399;28;20782;-85
2022/03/20 02:57:47;;;;;;;38.73;23.83;;;-0.60;99.90;;;;;;5122090;28;20895;-84
2022/03/20 03:00:17;;;;;;;42.50;23.97;;;-0.60;99.90;;;;;;5120410;28;20211;-84
2022/03/20 03:02:44;;;;;;;43.60;23.73;;;;;;;;;;5119841;28;20199;-84
2022/03/20 03:05:15;;;;;;;44.33;23.33;;;-0.60;99.90;;;;;;5119370;28;20460;-84
2022/03/20 03:13:13;;;;;;;44.20;24.47;;;-0.60;99.90;;;;;;5119470;28;20442;-84
2022/03/20 03:15:39;;;;;;;42.20;24.77;;;-0.60;99.90;;;;;;5117905;28;20442;-84
2022/03/20 03:18:04;;;;;;;42.93;24.40;;;-0.70;99.90;;;;;;5119132;27;20434;-84
2022/03/20 03:20:32;;;;;;;43.37;25.20;;;-0.70;99.90;;;;;;5117768;28;20182;-85
2022/03/20 03:22:58;;;;;;;42.23;25.70;;;;;;;;;;5119231;28;20242;-84
2022/03/20 03:25:24;;;;;;;41.73;24.77;;;-0.70;99.90;;;;;;5117560;28;20467;-85
2022/03/20 03:27:50;;;;;;;39.07;24.10;;;0.30;99.90;;;;;;5119106;28;20438;-84
2022/03/20 03:30:16;;;;;;;42.07;24.77;;;;;;;;;;5118053;28;20274;-84
2022/03/20 03:32:43;;;;;;;41.60;24.40;;;-0.70;99.90;;;;;;5117469;28;20457;-84
2022/03/20 03:37:55;;;;;;;42.43;25.47;;;-0.70;99.90;;;;;;5119306;28;20475;-84
2022/03/20 03:40:21;;;;;;;48.37;25.67;;;-0.80;99.90;;;;;;5118682;28;20216;-84
2022/03/20 03:42:47;;;;;;;46.80;26.73;;;;;;;;;;5117573;28;20508;-84
2022/03/20 03:45:13;;;;;;;48.60;26.10;;;;;;;;;;5118512;28;20453;-84
2022/03/20 03:47:42;;;;;;;43.47;25.33;;;-0.80;99.90;;;;;;5117307;28;20415;-84
2022/03/20 03:50:09;;;;;;;46.10;25.90;;;-1.00;99.90;;;;;;5117093;28;20704;-84
2022/03/20 03:52:36;;;;;;;45.07;26.23;;;;;;;;;;5118559;28;20401;-84
2022/03/20 03:55:02;;;;;;;42.70;24.83;;;;;;;;;;5117102;28;20428;-84
2022/03/20 03:57:28;;;;;;;40.87;25.33;;;;;;;;;;5117226;28;20422;-85
2022/03/20 03:59:54;;;;;;;47.73;26.93;;;;;;;;;;5118527;28;20409;-84
2022/03/20 04:02:21;;;;;;;47.37;25.47;;;-0.80;99.90;;;;;;5118177;28;20919;-85
2022/03/20 04:04:47;;;;;;;42.73;25.47;;;-0.80;99.90;;;;;;5117893;28;20509;-85
2022/03/20 04:07:16;;;;;;;48.47;24.73;;;;;;;;;;5118364;28;20206;-85
2022/03/20 04:09:43;;;;;;;49.83;27.93;;;-0.80;99.90;;;;;;5118323;28;20416;-84
2022/03/20 04:12:10;;;;;;;47.47;26.53;;;-0.80;99.90;;;;;;5119494;28;20492;-84
2022/03/20 04:14:36;;;;;;;41.50;24.03;;;;;;;;;;5119886;28;20716;-84
2022/03/20 04:17:05;;;;;;;44.90;24.63;;;;;;;;;;5123510;28;20429;-84
2022/03/20 04:19:30;;;;;;;43.67;24.20;;;-1.00;99.90;;;;;;5116881;28;20409;-84
2022/03/20 04:21:57;;;;;;;47.03;24.37;;;-1.00;99.90;;;;;;5118191;28;20535;-84
2022/03/20 04:24:23;;;;;;;47.43;26.63;;;;;;;;;;5116640;28;20703;-84
2022/03/20 04:26:48;;;;;;;41.37;24.93;;;-1.10;99.90;;;;;;5118018;28;20417;-84
2022/03/20 04:29:14;;;;;;;47.47;27.77;;;;;;;;;;5116841;28;20187;-84
2022/03/20 04:31:40;;;;;;;42.07;24.20;;;-1.10;99.90;;;;;;5118578;28;20172;-84
2022/03/20 04:34:06;;;;;;;46.07;24.63;;;-1.10;99.90;;;;;;5117014;28;20773;-84
2022/03/20 04:36:34;;;;;;;47.90;26.27;;;;;;;;;;5116806;28;20393;-83
2022/03/20 04:39:01;;;;;;;51.10;28.07;;;;;;;;;;5116686;28;20417;-84
2022/03/20 04:41:27;;;;;;;47.23;24.87;;;;;;;;;;5116459;28;20480;-84
2022/03/20 04:43:54;;;;;;;43.87;23.47;;;-1.10;99.90;;;;;;5116375;28;20555;-84
2022/03/20 04:46:21;;;;;;;39.63;24.33;;;;;;;;;;5118249;28;20433;-84
2022/03/20 04:59:45;;;;;;;40.13;23.13;;;-1.20;99.90;;;;;;5118767;28;20804;-85
2022/03/20 05:02:11;;;;;;;35.07;21.90;;;-1.40;99.90;;;;;;5117118;28;20441;-84
2022/03/20 05:04:37;;;;;;;42.97;24.23;;;-1.40;99.90;;;;;;5117178;28;20195;-84
2022/03/20 05:07:04;;;;;;;44.97;26.07;;;-1.40;99.90;;;;;;5117405;28;20203;-84
2022/03/20 05:15:08;;;;;;;45.60;23.93;;;-1.40;99.90;;;;;;5119607;28;20409;-85
2022/03/20 05:17:35;;;;;;;44.20;23.87;;;-1.40;99.90;;;;;;5117886;28;20448;-85
2022/03/20 05:20:02;;;;;;;42.93;24.93;;;;;;;;;;5117285;28;20419;-85
2022/03/20 05:22:28;;;;;;;44.93;26.87;;;;;;;;;;5119745;28;20462;-84
2022/03/20 05:24:54;;;;;;;45.20;26.37;;;;;;;;;;5122866;28;20448;-84
2022/03/20 05:27:20;;;;;;;46.10;25.93;;;-1.40;99.90;;;;;;5121521;28;20427;-85
2022/03/20 05:29:46;;;;;;;45.30;26.33;;;;;;;;;;5121690;28;20180;-85
2022/03/20 05:32:13;;;;;;;46.07;26.50;;;-1.30;99.90;;;;;;5122008;28;20172;-85
2022/03/20 05:34:39;;;;;;;46.30;26.97;;;;;;;;;;5124326;28;20184;-84
2022/03/20 05:37:07;;;;;;;45.93;26.97;;;-1.30;99.90;;;;;;5121925;28;20439;-84
2022/03/20 05:39:33;;;;;;;51.13;28.07;;;;;;;;;;5121834;28;20463;-85
2022/03/20 05:41:59;;;;;;;46.10;28.03;;;;;;;;;;5122767;28;20902;-85
2022/03/20 05:44:26;;;;;;;48.70;27.07;;;-1.10;99.90;;;;;;5123200;28;20467;-85
2022/03/20 05:46:54;;;;;;;45.57;24.53;;;-1.00;99.90;;;;;;5123288;28;20199;-85
2022/03/20 05:49:22;;;;;;;45.30;26.97;;;-1.00;99.90;;;;;;5123752;28;20417;-85
2022/03/20 05:51:49;;;;;;;51.23;28.80;;;-1.00;99.90;;;;;;5125750;28;20405;-85
2022/03/20 05:54:16;;;;;;;50.43;29.53;;;0.90;99.90;;;;;;5125629;27;20417;-85
2022/03/20 05:59:27;;;;;;;47.70;27.03;;;-0.80;99.90;;;;;;5125815;28;20401;-85
2022/03/20 06:01:54;;;;;;;49.10;27.40;;;;;;;;;;5124278;28;20436;-85
2022/03/20 06:04:21;;;;;;;44.10;28.17;;;-0.80;99.90;;;;;;5124180;28;20473;-85
2022/03/20 06:06:50;;;;;;;46.23;28.00;;;;;;;;;;5123444;28;20451;-85
2022/03/20 06:09:17;;;;;;;41.37;24.13;;;;;;;;;;5123106;28;20937;-85
2022/03/20 06:11:43;;;;;;;47.10;25.73;;;;;;;;;;5123350;28;20414;-85
2022/03/20 06:14:09;;;;;;;40.83;22.60;;;;;;;;;;5121762;28;20531;-85
2022/03/20 06:16:36;;;;;;;45.73;26.33;;;-0.90;99.90;;;;;;5122608;28;20429;-85
2022/03/20 06:19:05;;;;;;;48.87;28.40;;;-0.60;99.90;;;;;;5120890;28;20761;-85
2022/03/20 06:21:31;;;;;;;45.97;26.73;;;;;;;;;;5120681;28;20425;-85
2022/03/20 06:23:57;;;;;;;44.57;27.77;;;;;;;;;;5120576;28;20449;-85
2022/03/20 06:26:24;;;;;;;44.57;26.70;;;;;;;;;;5120625;28;20433;-85
2022/03/20 06:28:50;;;;;;;47.53;27.87;;;;;;;;;;5122112;28;20416;-85
2022/03/20 06:31:17;;;;;;;44.83;26.37;;;-0.30;99.90;;;;;;5122546;28;20409;-85
2022/03/20 06:33:46;;;;;;;44.97;26.77;;;-0.30;99.90;;;;;;5120627;28;20424;-85
2022/03/20 06:36:12;;;;;;;41.10;26.77;;;;;;;;;;5121185;28;20848;-86
2022/03/20 06:38:38;;;;;;;46.90;27.33;;;;;;;;;;5120905;28;20417;-86
2022/03/20 06:41:06;;;;;;;46.07;25.23;;;0.00;99.90;;;;;;5121186;28;20417;-86
2022/03/20 06:43:35;;;;;;;44.37;26.80;;;;;;;;;;5121454;28;20834;-86
2022/03/20 06:46:01;;;;;;;42.30;24.33;;;;;;;;;;5120562;28;20494;-86
2022/03/20 06:48:26;;;;;;;44.10;26.27;;;0.20;99.90;;;;;;5122458;28;20454;-86
2022/03/20 06:50:52;;;;;;;38.63;23.70;;;;;;;;;;5120712;28;20424;-86
2022/03/20 06:53:18;;;;;;;46.97;26.00;;;0.20;99.90;;;;;;5123657;28;20183;-86
2022/03/20 06:55:45;;;;;;;39.40;25.87;;;0.40;99.90;;;;;;5119954;28;20448;-86
2022/03/20 06:58:13;;;;;;;46.83;26.83;;;0.60;99.90;;;;;;5121160;28;20419;-86
2022/03/20 07:00:40;;;;;;;38.27;24.10;;;;;;;;;;5121888;27;20409;-83
2022/03/20 07:03:07;;;;;;;40.80;25.23;;;;;;;;;;5123129;28;20420;-83
2022/03/20 07:05:33;;;;;;;43.60;25.27;;;1.00;99.90;;;;;;5122091;28;20460;-85
2022/03/20 07:08:04;;;;;;;41.93;24.90;;;1.00;99.90;;;;;;5121331;28;20942;-85
2022/03/20 07:10:31;;;;;;;41.57;24.87;;;1.30;99.90;;;;;;5120814;28;20413;-85
2022/03/20 07:15:43;;;;;;;43.47;24.57;;;1.80;99.90;;;;;;5122208;28;20925;-85
2022/03/20 07:18:09;;;;;;;41.47;25.83;;;1.90;99.90;;;;;;5120943;28;20753;-84
2022/03/20 07:20:39;;;;;;;43.00;26.40;;;2.40;99.90;;;;;;5120704;28;20472;-85
2022/03/20 07:23:09;;;;;;;42.77;24.83;;;4.60;99.90;;;;;;5122060;28;20758;-85
2022/03/20 07:31:04;;;;;;;38.13;23.97;;;3.00;99.90;;;;;;5123121;28;20447;-85
2022/03/20 07:33:30;;;;;;;36.60;24.70;;;3.20;99.90;;;;;;5121419;28;20546;-85
2022/03/20 07:35:55;;;;;;;36.73;23.07;;;3.70;99.90;;;;;;5121418;28;20653;-85
2022/03/20 07:38:21;;;;;;;37.03;25.40;;;4.10;99.90;;;;;;5120367;28;20588;-85
2022/03/20 07:40:51;;;;;;;38.13;25.90;;;4.60;99.90;;;;;;5120231;28;20179;-85
2022/03/20 07:43:17;;;;;;;38.03;25.47;;;5.30;99.90;;;;;;5121560;28;20198;-86
2022/03/20 07:45:42;;;;;;;36.40;23.20;;;6.00;99.90;;;;;;5121112;28;20197;-85
2022/03/20 07:48:08;;;;;;;35.80;25.63;;;6.50;99.90;;;;;;5120783;28;20657;-85
2022/03/20 07:50:35;;;;;;;33.80;22.87;;;6.90;99.90;;;;;;5120229;28;20176;-85
2022/03/20 07:53:01;;;;;;;35.00;23.17;;;7.50;99.90;;;;;;5120073;28;20168;-85
2022/03/20 07:55:30;;;;;;;30.47;22.57;;;7.70;99.90;;;;;;5120114;28;20207;-85
2022/03/20 07:57:57;;;;;;;31.77;21.80;;;7.80;99.90;;;;;;5119356;28;20172;-85
2022/03/20 08:00:22;;;;;;;33.77;21.90;;;8.40;99.90;;;;;;5119442;28;20180;-85
2022/03/20 08:02:48;;;;;;;26.83;17.87;;;9.20;99.90;;;;;;5120652;28;20188;-85
2022/03/20 08:05:15;;;;;;;25.90;17.33;;;9.60;93.50;;;;;;5119773;28;20208;-85
2022/03/20 08:07:43;;;;;;;23.20;16.47;;;;;;;;;;5118959;28;20207;-85
2022/03/20 08:10:11;;;;;;;27.70;16.27;;;10.30;89.10;;;;;;5120823;28;20617;-85
2022/03/20 08:12:37;;;;;;;20.63;16.57;;;10.40;89.10;;;;;;5119656;28;20578;-85
2022/03/20 08:15:04;;;;;;;21.17;15.67;;;10.80;81.60;;;;;;5121139;28;20212;-85
2022/03/20 08:17:31;;;;;;;20.70;14.93;;;10.90;82.40;;;;;;5119393;28;20186;-85
2022/03/20 08:19:57;;;;;;;20.37;14.80;;;11.40;78.10;;;;;;5119978;28;20766;-86
2022/03/20 08:22:25;;;;;;;21.87;15.67;;;11.60;75.10;;;;;;5120824;28;20179;-85
2022/03/20 08:24:52;;;;;;;20.83;14.20;;;11.60;73.70;;;;;;5118654;28;20203;-85
2022/03/20 08:27:20;;;;;;;19.13;14.27;;;11.80;70.00;;;;;;5120050;28;20236;-83
2022/03/20 08:29:47;;;;;;;19.43;14.20;;;12.00;70.80;;;;;;5119661;28;20180;-83
2022/03/20 08:32:14;;;;;;;21.87;14.73;;;12.40;67.00;;;;;;5116583;28;20202;-81
2022/03/20 08:34:42;;;;;;;19.80;15.13;;;12.60;69.10;;;;;;5116990;28;20175;-85
2022/03/20 08:37:08;;;;;;;16.77;14.03;;;13.20;68.50;;;;;;5100226;28;20690;-82
2022/03/20 08:39:34;;;;;;;18.43;14.10;;;13.90;62.10;;;;;;5116075;28;20180;-82
2022/03/20 08:42:00;;;;;;;21.93;17.13;;;13.70;60.80;;;;;;5116985;28;20639;-83
2022/03/20 08:44:28;;;;;;;20.93;17.73;;;14.00;66.10;;;;;;5114470;28;20242;-83
2022/03/20 08:46:53;;;;;;;25.30;20.33;;;14.20;72.30;;;;;;5115681;28;20200;-83
2022/03/20 08:49:19;;;;;;;24.97;20.77;;;14.20;70.50;;;;;;5115814;28;20177;-83
2022/03/20 08:51:45;;;;;;;27.03;22.10;;;14.40;72.90;;;;;;5117939;28;20175;-84
2022/03/20 08:54:11;;;;;;;30.33;26.10;;;14.50;74.50;;;;;;5119771;28;20177;-84
2022/03/20 08:56:38;;;;;;;26.17;21.80;;;14.60;74.90;;;;;;5120416;28;20207;-84
2022/03/20 08:59:06;;;;;;;30.73;24.57;;;14.50;72.40;;;;;;5123647;28;20180;-83
2022/03/20 09:01:32;;;;;;;36.30;29.40;;;14.40;74.10;;;;;;5124175;28;20267;-83
2022/03/20 09:03:57;;;;;;;47.07;35.90;;;14.60;77.00;;;;;;5124452;28;20232;-82
2022/03/20 09:06:23;;;;;;;27.07;22.33;;;14.40;76.00;;;;;;5123956;28;20208;-82
2022/03/20 09:08:50;;;;;;;27.83;23.90;;;14.50;74.00;;;;;;5122383;28;20268;-83
2022/03/20 09:11:18;;;;;;;47.23;37.77;;;14.60;73.90;;;;;;5123394;28;20261;-83
2022/03/20 09:13:44;;;;;;;30.80;26.27;;;14.10;71.90;;;;;;5124082;28;20177;-83
2022/03/20 09:19:00;;;;;;;26.13;22.47;;;13.40;75.50;;;;;;5128268;28;20167;-85
2022/03/20 09:21:28;;;;;;;25.80;21.37;;;13.10;75.50;;;;;;5128298;28;20172;-84
2022/03/20 09:23:54;;;;;;;24.03;21.43;;;13.60;78.20;;;;;;5126682;28;20206;-85
2022/03/20 09:26:20;;;;;;;23.80;20.10;;;14.10;72.80;;;;;;5129754;28;20274;-85
2022/03/20 09:28:47;;;;;;;21.97;19.67;;;14.30;71.80;;;;;;5128897;28;20178;-85
2022/03/20 09:31:13;;;;;;;22.87;20.47;;;14.60;71.00;;;;;;5129130;28;20172;-85
2022/03/20 09:33:40;;;;;;;25.37;21.20;;;14.80;73.50;;;;;;5131064;28;20183;-83
2022/03/20 09:36:06;;;;;;;24.30;20.43;;;14.70;72.70;;;;;;5131346;28;20195;-83
2022/03/20 09:38:33;;;;;;;23.57;20.73;;;14.30;72.30;;;;;;5130950;28;20173;-83
2022/03/20 09:41:03;;;;;;;26.07;20.07;;;14.30;72.10;;;;;;5125116;28;20179;-83
2022/03/20 09:43:31;;;;;;;23.63;20.60;;;14.20;70.80;;;;;;5124015;28;20222;-84
2022/03/20 09:45:57;;;;;;;23.53;20.77;;;13.80;73.50;;;;;;5121595;28;20278;-84
2022/03/20 09:48:22;;;;;;;28.03;21.30;;;14.20;74.30;;;;;;5120435;28;20213;-83
2022/03/20 09:50:49;;;;;;;23.33;20.37;;;14.60;74.40;;;;;;5121274;28;20691;-83
2022/03/20 09:53:15;;;;;;;22.90;20.43;;;14.80;73.40;;;;;;5119730;28;20191;-83
2022/03/20 09:55:42;;;;;;;23.97;21.47;;;14.90;70.70;;;;;;5119632;28;20201;-83
2022/03/20 09:58:08;;;;;;;24.43;21.70;;;14.70;71.10;;;;;;5121364;28;20180;-83
2022/03/20 10:00:34;;;;;;;22.70;18.77;;;14.50;72.10;;;;;;5121379;28;20181;-83
2022/03/20 10:03:14;;;;;;;21.00;18.53;;;14.70;69.50;;;;;;5122417;28;20181;-83
2022/03/20 10:05:40;;;;;;;25.90;20.10;;;15.10;69.30;;;;;;5119802;28;20212;-83
2022/03/20 10:08:16;;;;;;;22.40;18.33;;;15.20;65.60;;;;;;5122272;28;20175;-84
2022/03/20 10:10:43;;;;;;;22.33;18.50;;;15.50;65.70;;;;;;5122159;28;20220;-84
2022/03/20 10:13:14;;;;;;;22.90;18.93;;;15.90;66.40;;;;;;5122214;28;20172;-83
2022/03/20 10:15:41;;;;;;;23.63;19.87;;;16.20;60.40;;;;;;5122163;28;20198;-84
2022/03/20 10:18:20;;;;;;;22.27;19.57;;;15.60;59.70;;;;;;5122011;28;20204;-84
2022/03/20 10:20:58;;;;;;;24.60;19.93;;;15.20;61.70;;;;;;5123492;28;20154;-84
2022/03/20 10:23:36;;;;;;;25.63;19.77;;;15.30;61.30;;;;;;5120955;28;20169;-84
2022/03/20 10:26:17;;;;;;;22.23;19.93;;;15.10;64.50;;;;;;5122231;28;20205;-84
2022/03/20 10:28:52;;;;;;;21.47;18.27;;;15.20;63.60;;;;;;5123169;28;20549;-83
2022/03/20 10:31:22;;;;;;;22.07;19.70;;;15.20;60.90;;;;;;5122028;28;20202;-84
2022/03/20 10:34:06;;;;;;;21.83;19.53;;;15.10;64.00;;;;;;5124159;28;20164;-84
2022/03/20 10:36:36;;;;;;;21.83;19.47;;;14.90;63.00;;;;;;5122481;28;20296;-84
2022/03/20 10:39:08;;;;;;;20.67;17.23;;;15.10;65.80;;;;;;5121379;28;20171;-85
2022/03/20 10:41:34;;;;;;;21.50;19.13;;;15.60;61.60;;;;;;5123586;28;20474;-86
2022/03/20 10:44:01;;;;;;;19.37;17.13;;;15.80;62.80;;;;;;5120163;28;20203;-86
2022/03/20 10:46:30;;;;;;;19.70;17.60;;;15.90;60.20;;;;;;5121636;28;20250;-86
2022/03/20 10:48:59;;;;;;;18.17;16.33;;;16.30;61.60;;;;;;5119052;28;20248;-86
2022/03/20 10:51:38;;;;;;;20.43;18.23;;;16.40;60.60;;;;;;5118311;28;20172;-87
2022/03/20 10:54:15;;;;;;;20.23;17.90;;;16.40;59.30;;;;;;5118840;28;20274;-86
2022/03/20 10:56:59;;;;;;;21.93;19.23;;;16.60;63.00;;;;;;5120134;28;20656;-87
2022/03/20 10:59:26;;;;;;;22.57;17.97;;;16.80;62.70;;;;;;5119719;28;20176;-86
2022/03/20 11:01:52;;;;;;;21.50;18.13;;;17.10;64.10;;;;;;5118680;28;20197;-86
2022/03/20 11:04:20;;;;;;;20.07;17.97;;;17.20;59.10;;;;;;5117420;28;20672;-85
2022/03/20 11:06:48;;;;;;;20.90;17.30;;;16.70;58.30;;;;;;5117742;28;20635;-86
2022/03/20 11:09:15;;;;;;;19.10;16.33;;;16.80;60.30;;;;;;5119076;28;20179;-84
2022/03/20 11:11:52;;;;;;;20.13;17.17;;;16.90;60.40;;;;;;5120001;28;20170;-86
2022/03/20 11:14:23;;;;;;;19.13;17.20;;;17.30;59.80;;;;;;5120027;28;20178;-85
2022/03/20 11:17:07;;;;;;;26.90;18.20;;;17.30;61.90;;;;;;5120620;28;20207;-87
2022/03/20 11:19:35;;;;;;;22.33;17.60;;;17.50;60.90;;;;;;5121708;28;20259;-84
2022/03/20 11:22:05;;;;;;;20.23;18.00;;;17.60;60.20;;;;;;5125191;28;20627;-84
2022/03/20 11:24:33;;;;;;;19.97;17.37;;;17.70;58.10;;;;;;5124920;28;20564;-84
2022/03/20 11:27:01;;;;;;;20.03;16.43;;;17.60;58.40;;;;;;5124914;28;20214;-83
2022/03/20 11:29:38;;;;;;;18.13;16.23;;;17.90;58.10;;;;;;5126760;28;20598;-81
2022/03/20 11:32:04;;;;;;;19.07;16.30;;;17.90;58.40;;;;;;5126789;28;20252;-82
2022/03/20 11:34:31;;;;;;;20.23;16.33;;;18.00;56.30;;;;;;5125359;28;20180;-84
2022/03/20 11:37:02;;;;;;;19.13;16.37;;;18.00;56.30;;;;;;5120732;28;20292;-83
2022/03/20 11:39:29;;;;;;;20.80;16.23;;;17.80;56.50;;;;;;5119604;28;20184;-84
2022/03/20 11:42:21;;;;;;;20.07;16.40;;;17.60;56.20;;;;;;5119848;28;20203;-84
2022/03/20 11:45:00;;;;;;;18.43;15.87;;;17.90;56.50;;;;;;5120140;28;20228;-84
2022/03/20 11:47:30;;;;;;;16.53;14.77;;;18.10;56.60;;;;;;5119955;28;20163;-85
2022/03/20 11:50:19;;;;;;;18.67;16.07;;;18.10;55.20;;;;;;5121647;28;20586;-84
2022/03/20 11:52:55;;;;;;;21.37;16.73;;;18.40;56.60;;;;;;5120177;28;20711;-82
2022/03/20 11:55:32;;;;;;;18.40;16.03;;;18.80;56.80;;;;;;5120357;28;20221;-82
2022/03/20 11:58:08;;;;;;;16.77;15.00;;;19.30;55.60;;;;;;5122886;28;20182;-81
2022/03/20 12:00:36;;;;;;;18.80;15.60;;;19.90;58.10;;;;;;5121634;28;20181;-82
2022/03/20 12:03:14;;;;;;;19.03;16.07;;;20.30;53.50;;;;;;5121875;28;20197;-81
2022/03/20 12:05:39;;;;;;;17.90;14.87;;;19.50;52.80;;;;;;5120230;28;20213;-82
2022/03/20 12:08:08;;;;;;;20.13;14.63;;;19.90;50.90;;;;;;5120822;28;20266;-81
2022/03/20 12:10:55;;;;;;;19.57;15.93;;;20.10;52.70;;;;;;5120326;28;20184;-82
2022/03/20 12:13:50;;;;;;;16.80;15.03;;;20.30;50.00;;;;;;5121635;28;20168;-81
2022/03/20 12:16:44;;;;;;;16.63;14.90;;;19.90;50.00;;;;;;5120854;28;20273;-84
2022/03/20 12:19:12;;;;;;;16.23;14.23;;;19.70;51.50;;;;;;5120809;28;20172;-84
2022/03/20 12:21:52;;;;;;;15.60;13.40;;;20.40;50.00;;;;;;5121634;28;20181;-83
2022/03/20 12:24:40;;;;;;;15.80;13.63;;;20.90;47.00;;;;;;5120489;28;20259;-83
2022/03/20 12:27:25;;;;;;;18.50;13.07;;;20.70;49.50;;;;;;5119742;28;20189;-84
2022/03/20 12:29:54;;;;;;;15.60;12.90;;;20.30;46.00;;;;;;5120121;28;20166;-85
2022/03/20 12:32:21;;;;;;;14.47;11.90;;;19.60;46.00;;;;;;5120573;28;20178;-83
2022/03/20 12:35:02;;;;;;;13.27;11.87;;;19.90;44.60;;;;;;5125962;28;20223;-84
2022/03/20 12:37:31;;;;;;;15.43;11.60;;;19.70;45.70;;;;;;5124277;28;20175;-83
2022/03/20 12:40:20;;;;;;;13.50;11.67;;;20.00;45.10;;;;;;5124312;28;20664;-84
2022/03/20 12:43:05;;;;;;;17.13;12.40;;;19.70;45.50;;;;;;5112968;28;20274;-83
2022/03/20 12:45:32;;;;;;;13.43;11.17;;;20.60;44.90;;;;;;5122539;28;20195;-82
2022/03/20 12:48:01;;;;;;;14.10;12.30;;;21.60;44.60;;;;;;5121893;28;20171;-83
2022/03/20 12:50:30;;;;;;;13.53;12.13;;;21.80;41.60;;;;;;5123892;27;20167;-83
2022/03/20 12:53:07;;;;;;;16.03;12.50;;;21.70;42.60;;;;;;5125537;28;20195;-85
2022/03/20 12:55:34;;;;;;;15.43;12.23;;;21.80;41.80;;;;;;5124061;28;20748;-83
2022/03/20 12:58:00;;;;;;;13.40;12.00;;;22.30;42.20;;;;;;5123974;28;20221;-82
2022/03/20 13:00:30;;;;;;;17.70;12.70;;;22.00;42.20;;;;;;5124928;28;20168;-83
2022/03/20 13:02:59;;;;;;;14.93;13.13;;;21.80;41.60;;;;;;5122971;28;20247;-83
2022/03/20 13:05:26;;;;;;;14.30;12.53;;;21.70;41.90;;;;;;5125774;28;20263;-80
2022/03/20 13:07:53;;;;;;;16.47;13.33;;;21.80;42.50;;;;;;5129945;28;20171;-82
2022/03/20 13:10:20;;;;;;;14.37;12.50;;;21.20;41.30;;;;;;5136670;28;20177;-80
2022/03/20 13:12:50;;;;;;;13.63;11.77;;;21.60;41.50;;;;;;5135552;28;20239;-81
2022/03/20 13:15:24;;;;;;;17.17;12.93;;;22.10;42.50;;;;;;5129654;28;20210;-80
2022/03/20 13:17:50;;;;;;;12.93;11.13;;;22.40;41.00;;;;;;5128403;28;20187;-82
2022/03/20 13:20:21;;;;;;;16.47;12.53;;;22.90;41.00;;;;;;5124738;28;20169;-81
2022/03/20 13:22:46;;;;;;;19.63;13.50;;;23.20;41.20;;;;;;5127305;28;20179;-82
2022/03/20 13:25:18;;;;;;;16.43;13.53;;;22.50;41.30;;;;;;5127790;28;20476;-82
2022/03/20 13:27:48;;;;;;;16.63;12.87;;;21.80;42.70;;;;;;5127441;28;20183;-82
2022/03/20 13:30:18;;;;;;;13.93;12.10;;;22.30;41.20;;;;;;5126739;28;20183;-82
2022/03/20 13:32:54;;;;;;;16.23;12.93;;;22.00;42.00;;;;;;5127558;28;20676;-82